Time;durP1;ratioP1;P1;durP2;ratioP2;P2;SDS_P1;SDS_P2;PMS_P1;PMS_P2;Temp;Humidity;BMP_temperature;BMP_pressure;BME280_temperature;BME280_humidity;BME280_pressure;Samples;Min_cycle;Max_cycle;Signal;HPM_P1;HPM_P2
2023/06/17 00:00:22;;;;;;;15.32;9.20;;;;;;;-144.57;100.00;62443.72;4954802;29;20031;-61
2023/06/17 00:02:48;;;;;;;9.82;8.35;;;;;;;-144.57;100.00;62443.72;4932388;29;20555;-61
2023/06/17 00:05:14;;;;;;;13.15;9.20;;;;;;;-144.57;100.00;62443.72;4953680;29;20488;-62
2023/06/17 00:07:41;;;;;;;13.27;8.77;;;;;;;-144.57;100.00;62443.72;4954273;29;20067;-63
2023/06/17 00:10:07;;;;;;;13.13;9.43;;;;;;;-144.57;100.00;62443.72;4954665;29;20409;-61
2023/06/17 00:12:33;;;;;;;12.25;8.57;;;;;;;-144.57;100.00;62443.72;4954022;29;20047;-63
2023/06/17 00:15:02;;;;;;;14.32;8.65;;;;;;;-144.57;100.00;62443.72;4936990;29;20117;-61
2023/06/17 00:17:30;;;;;;;11.77;8.52;;;;;;;-144.57;100.00;62443.72;4947137;29;20494;-61
2023/06/17 00:19:57;;;;;;;10.48;8.68;;;;;;;-144.57;100.00;62443.72;4954222;29;20055;-61
2023/06/17 00:22:26;;;;;;;12.38;8.65;;;;;;;-144.57;100.00;62443.72;4953945;29;20051;-61
2023/06/17 00:24:52;;;;;;;11.85;8.23;;;;;;;-144.57;100.00;62443.72;4930540;29;20035;-62
2023/06/17 00:27:17;;;;;;;13.50;8.82;;;;;;;-144.57;100.00;62443.72;4953631;29;20039;-63
2023/06/17 00:29:43;;;;;;;12.80;8.77;;;;;;;-144.57;100.00;62443.72;4936501;29;20047;-63
2023/06/17 00:32:09;;;;;;;13.30;9.80;;;;;;;-144.57;100.00;62443.72;4941951;29;20059;-61
2023/06/17 00:34:34;;;;;;;12.38;9.98;;;;;;;-144.57;100.00;62443.72;4925110;29;20056;-62
2023/06/17 00:37:00;;;;;;;12.93;10.60;;;;;;;-144.57;100.00;62443.72;4933707;29;20151;-63
2023/06/17 00:39:26;;;;;;;14.52;10.38;;;;;;;-144.57;100.00;62443.72;4936105;29;20111;-61
2023/06/17 00:41:52;;;;;;;13.00;10.15;;;;;;;-144.57;100.00;62443.72;4937430;29;20562;-63
2023/06/17 00:44:17;;;;;;;16.98;10.75;;;;;;;-144.57;100.00;62443.72;4955000;29;20039;-61
2023/06/17 00:46:50;;;;;;;14.23;8.75;;;;;;;-144.57;100.00;62443.72;4937585;29;20073;-63
2023/06/17 00:49:16;;;;;;;12.77;8.60;;;;;;;-144.57;100.00;62443.72;4921888;29;20498;-63
2023/06/17 00:51:41;;;;;;;11.63;9.00;;;;;;;-144.57;100.00;62443.72;4917341;29;20143;-61
2023/06/17 00:54:08;;;;;;;12.70;8.65;;;;;;;-144.57;100.00;62443.72;4918488;29;20544;-61
2023/06/17 00:56:36;;;;;;;11.73;8.70;;;;;;;-144.57;100.00;62443.72;4934353;29;20051;-61
2023/06/17 00:59:03;;;;;;;13.13;8.85;;;;;;;-144.57;100.00;62443.72;4935503;29;20450;-62
2023/06/17 01:01:29;;;;;;;13.75;10.15;;;;;;;-144.57;100.00;62443.72;4933798;29;20047;-61
2023/06/17 01:03:59;;;;;;;13.00;8.82;;;;;;;-144.57;100.00;62443.72;4917603;29;20549;-63
2023/06/17 01:06:42;;;;;;;16.33;9.18;;;;;;;-144.57;100.00;62443.72;4902473;29;20577;-62
2023/06/17 01:09:11;;;;;;;12.23;9.35;;;;;;;-144.57;100.00;62443.72;4951632;29;20043;-61
2023/06/17 01:11:39;;;;;;;14.23;9.75;;;;;;;-144.57;100.00;62443.72;4920413;29;20083;-61
2023/06/17 01:14:08;;;;;;;13.82;9.02;;;;;;;-144.57;100.00;62443.72;4953416;29;20047;-61
2023/06/17 01:16:36;;;;;;;12.40;9.32;;;;;;;-144.57;100.00;62443.72;4935771;29;20049;-62
2023/06/17 01:19:04;;;;;;;15.20;9.57;;;;;;;-144.57;100.00;62443.72;4935803;29;20604;-62
2023/06/17 01:21:30;;;;;;;14.75;9.40;;;;;;;-144.57;100.00;62443.72;4919964;29;20035;-62
2023/06/17 01:23:59;;;;;;;12.07;10.32;;;;;;;-144.57;100.00;62443.72;4904378;29;20509;-61
2023/06/17 01:26:28;;;;;;;12.63;9.88;;;;;;;-144.57;100.00;62443.72;4930454;29;20046;-61
2023/06/17 01:28:59;;;;;;;13.00;9.25;;;;;;;-144.57;100.00;62443.72;4952584;29;20090;-61
2023/06/17 01:31:26;;;;;;;12.35;9.10;;;;;;;-144.57;100.00;62443.72;4944502;29;20122;-61
2023/06/17 01:33:54;;;;;;;15.50;9.13;;;;;;;-144.57;100.00;62443.72;4952770;29;20124;-61
2023/06/17 01:36:30;;;;;;;15.57;9.85;;;;;;;-144.57;100.00;62443.72;4935776;29;20118;-61
2023/06/17 01:39:03;;;;;;;15.65;11.10;;;;;;;-144.57;100.00;62443.72;4924537;29;20487;-61
2023/06/17 01:41:46;;;;;;;17.17;14.32;;;;;;;-144.57;100.00;62443.72;4943433;29;20097;-61
2023/06/17 01:44:12;;;;;;;15.27;12.13;;;;;;;-144.57;100.00;62443.72;4919650;29;20039;-61
2023/06/17 01:46:39;;;;;;;12.48;10.02;;;;;;;-144.57;100.00;62443.72;4942565;29;20090;-62
2023/06/17 01:49:04;;;;;;;12.98;10.02;;;;;;;-144.57;100.00;62443.72;4934461;29;20047;-61
2023/06/17 01:51:30;;;;;;;12.45;9.85;;;;;;;-144.57;100.00;62443.72;4952425;29;20043;-63
2023/06/17 01:53:56;;;;;;;10.77;8.27;;;;;;;-144.57;100.00;62443.72;4919518;29;20553;-60
2023/06/17 01:56:21;;;;;;;10.63;7.30;;;;;;;-144.57;100.00;62443.72;4941792;29;20126;-61
2023/06/17 01:58:47;;;;;;;11.88;8.13;;;;;;;-144.57;100.00;62443.72;4951752;29;20050;-61
2023/06/17 02:01:13;;;;;;;11.73;8.70;;;;;;;-144.57;100.00;62443.72;4934182;29;20122;-61
2023/06/17 02:03:39;;;;;;;14.68;8.77;;;;;;;-144.57;100.00;62443.72;4927249;29;20043;-61
2023/06/17 02:06:05;;;;;;;12.45;9.68;;;;;;;-144.57;100.00;62443.72;4934750;29;20043;-61
2023/06/17 02:08:34;;;;;;;11.23;9.02;;;;;;;-144.57;100.00;62443.72;4935239;29;20098;-62
2023/06/17 02:11:01;;;;;;;12.07;9.05;;;;;;;-144.57;100.00;62443.72;4934336;29;20118;-62
2023/06/17 02:13:27;;;;;;;11.48;8.80;;;;;;;-144.57;100.00;62443.72;4953040;29;20130;-61
2023/06/17 02:15:53;;;;;;;10.07;9.05;;;;;;;-144.57;100.00;62443.72;4941425;29;20197;-61
2023/06/17 02:18:18;;;;;;;11.00;9.35;;;;;;;-144.57;100.00;62443.72;4935061;29;20058;-61
2023/06/17 02:20:45;;;;;;;14.07;9.43;;;;;;;-144.57;100.00;62443.72;4934810;29;20056;-61
2023/06/17 02:23:11;;;;;;;13.88;8.43;;;;;;;-144.57;100.00;62443.72;4951449;29;20043;-62
2023/06/17 02:25:39;;;;;;;14.00;8.50;;;;;;;-144.57;100.00;62443.72;4919884;29;20047;-61
2023/06/17 02:28:08;;;;;;;14.48;9.13;;;;;;;-144.57;100.00;62443.72;4935674;29;20122;-62
2023/06/17 02:30:34;;;;;;;11.18;8.95;;;;;;;-144.57;100.00;62443.72;4934845;29;20101;-61
2023/06/17 02:33:00;;;;;;;11.88;8.88;;;;;;;-144.57;100.00;62443.72;4942716;28;20138;-61
2023/06/17 02:35:26;;;;;;;12.70;9.55;;;;;;;-144.57;100.00;62443.72;4934257;29;20047;-61
2023/06/17 02:37:54;;;;;;;14.05;8.98;;;;;;;-144.57;100.00;62443.72;4913746;29;20044;-63
2023/06/17 02:40:20;;;;;;;11.35;8.35;;;;;;;-144.57;100.00;62443.72;4913540;29;20075;-61
2023/06/17 02:42:49;;;;;;;10.65;7.45;;;;;;;-144.57;100.00;62443.72;4913560;29;20549;-60
2023/06/17 02:45:15;;;;;;;12.43;8.82;;;;;;;-144.57;100.00;62443.72;4928825;29;20189;-61
2023/06/17 02:47:41;;;;;;;13.25;8.88;;;;;;;-144.57;100.00;62443.72;4913725;29;20079;-62
2023/06/17 02:50:07;;;;;;;12.15;7.85;;;;;;;-144.57;100.00;62443.72;4916800;29;20130;-60
2023/06/17 02:52:34;;;;;;;9.25;7.45;;;;;;;-144.57;100.00;62443.72;4932766;29;20047;-61
2023/06/17 02:55:02;;;;;;;11.88;7.47;;;;;;;-144.57;100.00;62443.72;4932599;29;20103;-63
2023/06/17 02:57:29;;;;;;;9.75;8.23;;;;;;;-144.57;100.00;62443.72;4948776;29;20195;-62
2023/06/17 02:59:55;;;;;;;15.25;8.23;;;;;;;-144.57;100.00;62443.72;4935152;29;20091;-61
2023/06/17 03:02:20;;;;;;;12.52;8.30;;;;;;;-144.57;100.00;62443.72;4951557;29;20051;-62
2023/06/17 03:04:48;;;;;;;12.20;8.48;;;;;;;-144.57;100.00;62443.72;4936622;29;20062;-61
2023/06/17 03:07:15;;;;;;;13.30;9.15;;;;;;;-144.57;100.00;62443.72;4942735;29;20510;-62
2023/06/17 03:09:41;;;;;;;12.02;8.90;;;;;;;-144.57;100.00;62443.72;4936301;29;20055;-61
2023/06/17 03:12:08;;;;;;;13.63;8.68;;;;;;;-144.57;100.00;62443.72;4934884;29;20560;-62
2023/06/17 03:14:34;;;;;;;11.13;8.30;;;;;;;-144.57;100.00;62443.72;4908963;29;20050;-61
2023/06/17 03:17:02;;;;;;;11.43;8.20;;;;;;;-144.57;100.00;62443.72;4926623;29;20075;-61
2023/06/17 03:19:29;;;;;;;16.83;8.70;;;;;;;-144.57;100.00;62443.72;4942539;29;20059;-62
2023/06/17 03:21:55;;;;;;;15.13;9.90;;;;;;;-144.57;100.00;62443.72;4934552;29;20044;-62
2023/06/17 03:24:24;;;;;;;10.70;7.78;;;;;;;-144.57;100.00;62443.72;4934801;29;20549;-61
2023/06/17 03:26:51;;;;;;;10.57;8.07;;;;;;;-144.57;100.00;62443.72;4941794;28;20089;-62
2023/06/17 03:29:17;;;;;;;12.27;8.07;;;;;;;-144.57;100.00;62443.72;4944305;29;20340;-61
2023/06/17 03:31:42;;;;;;;11.15;8.43;;;;;;;-144.57;100.00;62443.72;4926345;29;20496;-61
2023/06/17 03:34:09;;;;;;;11.40;8.00;;;;;;;-144.57;100.00;62443.72;4934058;29;20051;-62
2023/06/17 03:36:36;;;;;;;10.25;8.02;;;;;;;-144.57;100.00;62443.72;4935122;29;20514;-63
2023/06/17 03:39:03;;;;;;;9.55;7.68;;;;;;;-144.57;100.00;62443.72;4935562;29;20098;-61
2023/06/17 03:41:32;;;;;;;10.15;8.05;;;;;;;-144.57;100.00;62443.72;4934755;29;20099;-61
2023/06/17 03:44:00;;;;;;;9.52;8.27;;;;;;;-144.57;100.00;62443.72;4951417;29;20500;-61
2023/06/17 03:46:26;;;;;;;8.82;7.85;;;;;;;-144.57;100.00;62443.72;4951482;29;20042;-62
2023/06/17 03:48:52;;;;;;;10.73;7.70;;;;;;;-144.57;100.00;62443.72;4944903;29;20055;-61
2023/06/17 03:51:18;;;;;;;9.55;7.93;;;;;;;-144.57;100.00;62443.72;4916213;29;20044;-60
2023/06/17 03:53:44;;;;;;;13.73;7.88;;;;;;;-144.57;100.00;62443.72;4932454;29;20572;-62
2023/06/17 03:56:10;;;;;;;11.10;7.65;;;;;;;-144.57;100.00;62443.72;4932186;29;20044;-61
2023/06/17 03:58:37;;;;;;;10.50;7.40;;;;;;;-144.57;100.00;62443.72;4941587;29;20051;-60
2023/06/17 04:01:03;;;;;;;9.77;6.95;;;;;;;-144.57;100.00;62443.72;4910454;29;20067;-59
2023/06/17 04:03:30;;;;;;;9.25;7.10;;;;;;;-144.57;100.00;62443.72;4932110;29;20066;-60
2023/06/17 04:05:56;;;;;;;9.85;7.03;;;;;;;-144.57;100.00;62443.72;4935224;29;20081;-60
2023/06/17 04:08:23;;;;;;;11.43;6.82;;;;;;;-144.57;100.00;62443.72;4935330;29;20059;-62
2023/06/17 04:10:49;;;;;;;9.25;6.80;;;;;;;-144.57;100.00;62443.72;4935751;29;20106;-63
2023/06/17 04:13:15;;;;;;;9.40;6.88;;;;;;;-144.57;100.00;62443.72;4935185;29;20155;-64
2023/06/17 04:15:42;;;;;;;11.02;7.38;;;;;;;-144.57;100.00;62443.72;4933987;29;20126;-61
2023/06/17 04:18:07;;;;;;;10.32;6.72;;;;;;;-144.57;100.00;62443.72;4923264;29;20051;-62
2023/06/17 04:20:36;;;;;;;9.02;6.70;;;;;;;-144.57;100.00;62443.72;4935838;29;20039;-62
2023/06/17 04:23:02;;;;;;;12.57;6.88;;;;;;;-144.57;100.00;62443.72;4934132;29;20530;-61
2023/06/17 04:25:32;;;;;;;9.00;6.93;;;;;;;-144.57;100.00;62443.72;4934902;29;20062;-61
2023/06/17 04:28:01;;;;;;;7.68;6.47;;;;;;;-144.57;100.00;62443.72;4933893;29;20043;-62
2023/06/17 04:30:30;;;;;;;9.05;6.25;;;;;;;-144.57;100.00;62443.72;4942026;29;20335;-62
2023/06/17 04:32:59;;;;;;;7.90;6.20;;;;;;;-144.57;100.00;62443.72;4933886;29;20056;-61
2023/06/17 04:35:26;;;;;;;7.78;6.63;;;;;;;-144.57;100.00;62443.72;4918373;29;20040;-61
2023/06/17 04:37:56;;;;;;;7.30;6.07;;;;;;;-144.57;100.00;62443.72;4917819;29;20549;-61
2023/06/17 04:40:23;;;;;;;;;;;;;;;-144.57;100.00;62443.72;4934340;29;20054;-61
2023/06/17 04:42:49;;;;;;;10.63;7.05;;;;;;;-144.57;100.00;62443.72;4917949;29;19926;-61
2023/06/17 04:45:17;;;;;;;6.85;5.88;;;;;;;-144.57;100.00;62443.72;4934141;29;20138;-62
2023/06/17 04:47:44;;;;;;;6.50;5.88;;;;;;;-144.57;100.00;62443.72;4934494;29;20051;-61
2023/06/17 04:50:15;;;;;;;9.18;7.32;;;;;;;-144.57;100.00;62443.72;4932296;29;20135;-61
2023/06/17 04:52:44;;;;;;;7.10;6.07;;;;;;;-144.57;100.00;62443.72;4934200;29;20182;-62
2023/06/17 04:55:14;;;;;;;6.97;6.13;;;;;;;-144.57;100.00;62443.72;4933334;29;20075;-61
2023/06/17 04:57:41;;;;;;;7.80;6.32;;;;;;;-144.57;100.00;62443.72;4934065;29;20052;-62
2023/06/17 05:00:10;;;;;;;7.72;6.40;;;;;;;-144.57;100.00;62443.72;4933765;29;20055;-61
2023/06/17 05:02:37;;;;;;;7.55;5.93;;;;;;;-144.57;100.00;62443.72;4933261;29;20521;-61
2023/06/17 05:05:07;;;;;;;7.55;6.13;;;;;;;-144.57;100.00;62443.72;4933319;29;20067;-63
2023/06/17 05:07:34;;;;;;;8.32;6.55;;;;;;;-144.57;100.00;62443.72;4933263;29;20502;-61
2023/06/17 05:10:01;;;;;;;6.35;5.75;;;;;;;-144.57;100.00;62443.72;4933129;29;20055;-62
2023/06/17 05:12:27;;;;;;;7.47;6.50;;;;;;;-144.57;100.00;62443.72;4933841;29;20051;-61
2023/06/17 05:14:53;;;;;;;9.57;6.28;;;;;;;-144.57;100.00;62443.72;4933846;29;20054;-63
2023/06/17 05:17:20;;;;;;;7.78;6.63;;;;;;;-144.57;100.00;62443.72;4934428;29;20051;-61
2023/06/17 05:19:45;;;;;;;8.82;6.70;;;;;;;-144.57;100.00;62443.72;4940633;29;20048;-63
2023/06/17 05:22:12;;;;;;;8.70;6.53;;;;;;;-144.57;100.00;62443.72;4938838;29;20044;-62
2023/06/17 05:24:37;;;;;;;9.63;6.47;;;;;;;-144.57;100.00;62443.72;4930734;29;20530;-62
2023/06/17 05:27:03;;;;;;;8.43;6.95;;;;;;;-144.57;100.00;62443.72;4919754;29;20073;-63
2023/06/17 05:29:29;;;;;;;10.57;7.22;;;;;;;-144.57;100.00;62443.72;4944772;29;20047;-61
2023/06/17 05:31:57;;;;;;;8.82;6.78;;;;;;;-144.57;100.00;62443.72;4925047;29;20047;-62
2023/06/17 05:34:23;;;;;;;9.63;6.80;;;;;;;-144.57;100.00;62443.72;4953353;29;20053;-62
2023/06/17 05:36:48;;;;;;;8.85;6.85;;;;;;;-144.57;100.00;62443.72;4953166;29;20051;-66
2023/06/17 05:39:14;;;;;;;10.35;7.50;;;;;;;-144.57;100.00;62443.72;4934563;29;20047;-62
2023/06/17 05:41:40;;;;;;;8.02;7.15;;;;;;;-144.57;100.00;62443.72;4942543;29;20058;-63
2023/06/17 05:44:06;;;;;;;10.05;7.60;;;;;;;-144.57;100.00;62443.72;4943240;29;20050;-61
2023/06/17 05:46:33;;;;;;;10.32;7.32;;;;;;;-144.57;100.00;62443.72;4943143;29;20095;-63
2023/06/17 05:48:59;;;;;;;11.35;6.80;;;;;;;-144.57;100.00;62443.72;4952203;28;20646;-61
2023/06/17 05:51:27;;;;;;;10.70;6.75;;;;;;;-144.57;100.00;62443.72;4937756;28;20051;-64
2023/06/17 05:53:54;;;;;;;13.25;8.40;;;;;;;-144.57;100.00;62443.72;4942803;29;20054;-63
2023/06/17 05:56:20;;;;;;;10.18;7.43;;;;;;;-144.57;100.00;62443.72;4947449;28;20039;-63
2023/06/17 05:58:46;;;;;;;9.27;6.80;;;;;;;-144.57;100.00;62443.72;4916743;29;20047;-62
2023/06/17 06:01:21;;;;;;;13.63;7.70;;;;;;;-144.57;100.00;62443.72;4926648;29;20117;-60
2023/06/17 06:03:47;;;;;;;9.73;7.70;;;;;;;-144.57;100.00;62443.72;4941319;28;20474;-62
2023/06/17 06:06:12;;;;;;;11.80;7.65;;;;;;;-144.57;100.00;62443.72;4926965;29;20134;-62
2023/06/17 06:08:38;;;;;;;13.80;8.00;;;;;;;-144.57;100.00;62443.72;4952150;29;20493;-62
2023/06/17 06:11:04;;;;;;;10.25;7.20;;;;;;;-144.57;100.00;62443.72;4952876;29;20062;-63
2023/06/17 06:13:29;;;;;;;10.50;7.63;;;;;;;-144.57;100.00;62443.72;4951207;29;20051;-62
2023/06/17 06:15:55;;;;;;;12.40;8.02;;;;;;;-144.57;100.00;62443.72;4935372;29;20086;-62
2023/06/17 06:18:21;;;;;;;9.75;7.80;;;;;;;-144.57;100.00;62443.72;4920836;29;20051;-64
2023/06/17 06:20:46;;;;;;;9.25;7.50;;;;;;;-144.57;100.00;62443.72;4932758;29;20047;-63
2023/06/17 06:23:12;;;;;;;8.30;7.10;;;;;;;-144.57;100.00;62443.72;4917036;29;20564;-63
2023/06/17 06:25:38;;;;;;;8.70;7.20;;;;;;;-144.57;100.00;62443.72;4932783;29;20205;-61
2023/06/17 06:28:05;;;;;;;10.63;7.88;;;;;;;-144.57;100.00;62443.72;4933050;29;20125;-62
2023/06/17 06:30:31;;;;;;;8.13;7.28;;;;;;;-144.57;100.00;62443.72;4918120;29;20568;-63
2023/06/17 06:32:58;;;;;;;15.25;7.53;;;;;;;-144.57;100.00;62443.72;4950037;29;20094;-63
2023/06/17 06:35:25;;;;;;;9.00;6.72;;;;;;;-144.57;100.00;62443.72;4940148;28;20039;-62
2023/06/17 06:37:51;;;;;;;7.22;6.47;;;;;;;-144.57;100.00;62443.72;4941760;29;20051;-63
2023/06/17 06:40:18;;;;;;;9.52;6.57;;;;;;;-144.57;100.00;62443.72;4951945;29;20055;-61
2023/06/17 06:42:45;;;;;;;8.70;6.60;;;;;;;-144.57;100.00;62443.72;4935693;29;20066;-62
2023/06/17 06:45:18;;;;;;;8.90;7.18;;;;;;;-144.57;100.00;62443.72;4935904;29;20555;-60
2023/06/17 06:47:44;;;;;;;6.82;6.07;;;;;;;-144.57;100.00;62443.72;4935446;29;20043;-62
2023/06/17 06:50:10;;;;;;;10.80;7.55;;;;;;;-144.57;100.00;62443.72;4935838;29;20523;-60
2023/06/17 06:52:37;;;;;;;7.93;6.97;;;;;;;-144.57;100.00;62443.72;4940356;28;20051;-61
2023/06/17 06:55:03;;;;;;;16.25;7.78;;;;;;;-144.57;100.00;62443.72;4942862;29;20051;-61
2023/06/17 06:57:29;;;;;;;8.18;6.70;;;;;;;-144.57;100.00;62443.72;4935284;29;20043;-62
2023/06/17 06:59:55;;;;;;;8.52;7.00;;;;;;;-144.57;100.00;62443.72;4949953;29;20070;-60
2023/06/17 07:02:21;;;;;;;8.13;6.80;;;;;;;-144.57;100.00;62443.72;4941643;29;20114;-60
2023/06/17 07:04:47;;;;;;;8.60;6.57;;;;;;;-144.57;100.00;62443.72;4934400;29;20134;-63
2023/06/17 07:07:15;;;;;;;8.15;6.97;;;;;;;-144.57;100.00;62443.72;4926213;29;20051;-61
2023/06/17 07:09:41;;;;;;;10.32;7.13;;;;;;;-144.57;100.00;62443.72;4943501;29;20039;-60
2023/06/17 07:12:07;;;;;;;9.18;6.53;;;;;;;-144.57;100.00;62443.72;4951170;29;20070;-59
2023/06/17 07:14:36;;;;;;;11.13;6.85;;;;;;;-144.57;100.00;62443.72;4946635;29;20509;-58
2023/06/17 07:17:02;;;;;;;9.43;6.82;;;;;;;-144.57;100.00;62443.72;4933997;29;20098;-60
2023/06/17 07:19:27;;;;;;;13.20;7.03;;;;;;;-144.57;100.00;62443.72;4951764;29;20055;-60
2023/06/17 07:21:54;;;;;;;8.30;6.57;;;;;;;-144.57;100.00;62443.72;4934557;29;20528;-60
2023/06/17 07:24:21;;;;;;;7.55;6.20;;;;;;;-144.57;100.00;62443.72;4919593;29;20059;-60
2023/06/17 07:26:47;;;;;;;10.50;7.10;;;;;;;-144.57;100.00;62443.72;4952461;29;20400;-59
2023/06/17 07:29:13;;;;;;;9.30;6.45;;;;;;;-144.57;100.00;62443.72;4910947;29;20560;-58
2023/06/17 07:31:39;;;;;;;10.52;6.80;;;;;;;-144.57;100.00;62443.72;4951703;29;20047;-60
2023/06/17 07:34:05;;;;;;;8.95;6.65;;;;;;;-144.57;100.00;62443.72;4930847;29;20083;-60
2023/06/17 07:36:30;;;;;;;11.38;7.32;;;;;;;-144.57;100.00;62443.72;4932053;29;20074;-61
2023/06/17 07:38:57;;;;;;;9.00;6.25;;;;;;;-144.57;100.00;62443.72;4931499;29;20047;-60
2023/06/17 07:41:23;;;;;;;10.38;6.45;;;;;;;-144.57;100.00;62443.72;4933593;29;20122;-60
2023/06/17 07:43:49;;;;;;;8.80;6.65;;;;;;;-144.57;100.00;62443.72;4932215;29;20102;-59
2023/06/17 07:46:16;;;;;;;9.07;6.20;;;;;;;-144.57;100.00;62443.72;4932319;29;20458;-60
2023/06/17 07:48:41;;;;;;;20.67;8.23;;;;;;;-144.57;100.00;62443.72;4934112;29;20110;-60
2023/06/17 07:51:07;;;;;;;9.57;7.32;;;;;;;-144.57;100.00;62443.72;4936118;29;20100;-58
2023/06/17 07:53:33;;;;;;;10.32;7.25;;;;;;;-144.57;100.00;62443.72;4936387;29;20036;-60
2023/06/17 07:55:59;;;;;;;10.35;7.32;;;;;;;-144.57;100.00;62443.72;4936378;29;20409;-59
2023/06/17 07:58:24;;;;;;;10.30;6.82;;;;;;;-144.57;100.00;62443.72;4932360;29;20036;-59
2023/06/17 08:00:50;;;;;;;8.50;6.97;;;;;;;-144.57;100.00;62443.72;4942861;29;20130;-58
2023/06/17 08:03:16;;;;;;;7.95;6.70;;;;;;;-144.57;100.00;62443.72;4936047;29;20055;-59
2023/06/17 08:05:41;;;;;;;10.18;6.90;;;;;;;-144.57;100.00;62443.72;4936285;29;20099;-59
2023/06/17 08:08:07;;;;;;;9.82;7.00;;;;;;;-144.57;100.00;62443.72;4934309;29;20513;-61
2023/06/17 08:10:33;;;;;;;11.98;7.65;;;;;;;-144.57;100.00;62443.72;4936027;29;20398;-59
2023/06/17 08:12:58;;;;;;;8.98;7.57;;;;;;;-144.57;100.00;62443.72;4941783;29;20044;-61
2023/06/17 08:15:24;;;;;;;8.52;7.10;;;;;;;-144.57;100.00;62443.72;4936195;29;20075;-60
2023/06/17 08:17:50;;;;;;;11.05;7.45;;;;;;;-144.57;100.00;62443.72;4933560;29;20036;-60
2023/06/17 08:20:16;;;;;;;12.32;6.97;;;;;;;-144.57;100.00;62443.72;4935807;29;20098;-60
2023/06/17 08:22:42;;;;;;;22.45;17.55;;;;;;;-144.57;100.00;62443.72;4941369;29;20510;-61
2023/06/17 08:25:08;;;;;;;9.90;7.75;;;;;;;-144.57;100.00;62443.72;4925214;29;20048;-59
2023/06/17 08:27:34;;;;;;;9.38;7.22;;;;;;;-144.57;100.00;62443.72;4934166;29;20134;-62
2023/06/17 08:29:59;;;;;;;9.23;6.95;;;;;;;-144.57;100.00;62443.72;4935549;29;20059;-60
2023/06/17 08:32:25;;;;;;;9.30;6.95;;;;;;;-144.57;100.00;62443.72;4939351;29;20117;-59
2023/06/17 08:34:51;;;;;;;8.85;6.43;;;;;;;-144.57;100.00;62443.72;4921548;29;20043;-60
2023/06/17 08:37:16;;;;;;;8.52;6.82;;;;;;;-144.57;100.00;62443.72;4937002;29;20493;-61
2023/06/17 08:39:42;;;;;;;9.23;7.43;;;;;;;-144.57;100.00;62443.72;4954133;29;20051;-58
2023/06/17 08:42:09;;;;;;;13.35;7.40;;;;;;;-144.57;100.00;62443.72;4944065;29;20050;-59
2023/06/17 08:44:38;;;;;;;7.95;6.53;;;;;;;-144.57;100.00;62443.72;4955106;29;20481;-59
2023/06/17 08:47:05;;;;;;;12.97;7.23;;;;;;;-144.57;100.00;62443.72;4955086;29;20417;-59
2023/06/17 08:49:31;;;;;;;11.35;7.65;;;;;;;-144.57;100.00;62443.72;4937525;29;20645;-58
2023/06/17 08:52:00;;;;;;;9.98;6.57;;;;;;;-144.57;100.00;62443.72;4954012;29;20050;-60
2023/06/17 08:54:27;;;;;;;9.38;7.20;;;;;;;-144.57;100.00;62443.72;4953614;28;20047;-61
2023/06/17 08:56:53;;;;;;;9.50;7.20;;;;;;;-144.57;100.00;62443.72;4954104;29;20051;-60
2023/06/17 08:59:19;;;;;;;10.70;7.30;;;;;;;-144.57;100.00;62443.72;4953869;28;20043;-60
2023/06/17 09:01:45;;;;;;;10.48;7.63;;;;;;;-144.57;100.00;62443.72;4936350;29;20039;-60
2023/06/17 09:04:12;;;;;;;8.65;7.45;;;;;;;-144.57;100.00;62443.72;4945348;29;20039;-62
2023/06/17 09:06:38;;;;;;;10.77;7.10;;;;;;;-144.57;100.00;62443.72;4953409;28;20043;-59
2023/06/17 09:09:04;;;;;;;9.13;7.75;;;;;;;-144.57;100.00;62443.72;4936225;29;20047;-59
2023/06/17 09:11:31;;;;;;;8.27;7.28;;;;;;;-144.57;100.00;62443.72;4953860;29;20070;-63
2023/06/17 09:14:00;;;;;;;9.38;7.43;;;;;;;-144.57;100.00;62443.72;4953642;29;20047;-60
2023/06/17 09:16:26;;;;;;;12.73;8.30;;;;;;;-144.57;100.00;62443.72;4953993;29;20066;-59
2023/06/17 09:18:56;;;;;;;9.93;8.25;;;;;;;-144.57;100.00;62443.72;4953223;29;20035;-60
2023/06/17 09:21:23;;;;;;;10.35;7.82;;;;;;;-144.57;100.00;62443.72;4952789;29;20035;-59
2023/06/17 09:23:59;;;;;;;10.00;7.75;;;;;;;-144.57;100.00;62443.72;4952875;29;20576;-60
2023/06/17 09:26:27;;;;;;;9.30;8.30;;;;;;;-144.57;100.00;62443.72;4946457;29;20071;-61
2023/06/17 09:28:53;;;;;;;9.90;7.95;;;;;;;-144.57;100.00;62443.72;4936252;29;20130;-60
2023/06/17 09:31:18;;;;;;;11.00;8.48;;;;;;;-144.57;100.00;62443.72;4936038;29;20217;-60
2023/06/17 09:33:45;;;;;;;14.98;8.90;;;;;;;-144.57;100.00;62443.72;4935864;29;20055;-60
2023/06/17 09:36:11;;;;;;;10.90;7.78;;;;;;;-144.57;100.00;62443.72;4952505;29;20043;-61
2023/06/17 09:38:37;;;;;;;9.65;7.97;;;;;;;-144.57;100.00;62443.72;4952615;29;20055;-62
2023/06/17 09:41:04;;;;;;;9.15;7.90;;;;;;;-144.57;100.00;62443.72;4952984;29;20031;-61
2023/06/17 09:43:30;;;;;;;13.18;8.10;;;;;;;-144.57;100.00;62443.72;4945875;29;20054;-60
2023/06/17 09:46:00;;;;;;;12.45;8.48;;;;;;;-144.57;100.00;62443.72;4943065;29;20464;-60
2023/06/17 09:48:31;;;;;;;9.70;8.05;;;;;;;-144.57;100.00;62443.72;4927401;29;20039;-61
2023/06/17 09:50:57;;;;;;;9.55;8.43;;;;;;;-144.57;100.00;62443.72;4952973;29;20039;-61
2023/06/17 09:53:30;;;;;;;10.73;8.45;;;;;;;-144.57;100.00;62443.72;4936080;29;20125;-61
2023/06/17 09:55:58;;;;;;;11.55;8.98;;;;;;;-144.57;100.00;62443.72;4952001;29;20043;-59
2023/06/17 09:58:30;;;;;;;12.38;9.23;;;;;;;-144.57;100.00;62443.72;4953513;29;20098;-61
2023/06/17 10:01:06;;;;;;;11.70;8.90;;;;;;;-144.57;100.00;62443.72;4935514;29;20043;-61
2023/06/17 10:03:36;;;;;;;10.20;8.50;;;;;;;-144.57;100.00;62443.72;4950872;29;20053;-62
2023/06/17 10:06:14;;;;;;;10.07;8.63;;;;;;;-144.57;100.00;62443.72;4935629;29;20542;-62
2023/06/17 10:08:46;;;;;;;12.00;9.07;;;;;;;-144.57;100.00;62443.72;4941630;28;20505;-60
2023/06/17 10:11:20;;;;;;;12.00;8.50;;;;;;;-144.57;100.00;62443.72;4902929;29;20055;-60
2023/06/17 10:14:12;;;;;;;12.50;9.57;;;;;;;-144.57;100.00;62443.72;4937844;29;20146;-61
2023/06/17 10:16:40;;;;;;;13.27;9.18;;;;;;;-144.57;100.00;62443.72;4929408;29;20468;-60
2023/06/17 10:19:07;;;;;;;12.48;8.65;;;;;;;-144.57;100.00;62443.72;4918786;29;20051;-60
2023/06/17 10:21:38;;;;;;;13.20;10.00;;;;;;;-144.57;100.00;62443.72;4953021;29;20043;-60
2023/06/17 10:24:04;;;;;;;11.00;9.00;;;;;;;-144.57;100.00;62443.72;4943181;29;20055;-60
2023/06/17 10:26:31;;;;;;;12.63;9.90;;;;;;;-144.57;100.00;62443.72;4943659;29;20066;-61
2023/06/17 10:28:59;;;;;;;14.50;8.85;;;;;;;-144.57;100.00;62443.72;4951842;29;20054;-60
2023/06/17 10:31:30;;;;;;;15.15;10.15;;;;;;;-144.57;100.00;62443.72;4951744;29;20098;-61
2023/06/17 10:33:57;;;;;;;12.73;9.73;;;;;;;-144.57;100.00;62443.72;4934172;29;20055;-59
2023/06/17 10:36:24;;;;;;;15.45;9.13;;;;;;;-144.57;100.00;62443.72;4951381;29;20139;-61
2023/06/17 10:38:58;;;;;;;12.70;10.05;;;;;;;-144.57;100.00;62443.72;4951039;29;20051;-60
2023/06/17 10:41:38;;;;;;;13.90;9.60;;;;;;;-144.57;100.00;62443.72;4951072;29;20058;-60
2023/06/17 10:44:23;;;;;;;15.35;10.32;;;;;;;-144.57;100.00;62443.72;4949511;29;20129;-61
2023/06/17 10:46:52;;;;;;;12.00;9.65;;;;;;;-144.57;100.00;62443.72;4952205;29;20047;-62
2023/06/17 10:49:19;;;;;;;12.77;10.27;;;;;;;-144.57;100.00;62443.72;4952856;29;20047;-61
2023/06/17 10:51:48;;;;;;;12.90;10.13;;;;;;;-144.57;100.00;62443.72;4952849;29;20509;-60
2023/06/17 10:54:14;;;;;;;14.52;10.95;;;;;;;-144.57;100.00;62443.72;4951976;29;20075;-60
2023/06/17 10:57:05;;;;;;;13.32;9.95;;;;;;;-144.57;100.00;62443.72;4952927;29;20506;-61
2023/06/17 10:59:32;;;;;;;12.95;9.93;;;;;;;-144.57;100.00;62443.72;4951677;29;20055;-62
2023/06/17 11:02:07;;;;;;;14.07;10.57;;;;;;;-144.57;100.00;62443.72;4952668;29;20048;-61
2023/06/17 11:04:35;;;;;;;12.57;10.02;;;;;;;-144.57;100.00;62443.72;4952934;29;20298;-60